Time;durP1;ratioP1;P1;durP2;ratioP2;P2;SDS_P1;SDS_P2;PMS_P1;PMS_P2;Temp;Humidity;BMP_temperature;BMP_pressure;BME280_temperature;BME280_humidity;BME280_pressure;Samples;Min_cycle;Max_cycle;Signal;HPM_P1;HPM_P2
2022/06/18 00:01:33;;;;;;;2.27;2.00;;;;;;;12.34;74.83;101328.34;5053474;28;20049;-64
2022/06/18 00:04:14;;;;;;;3.43;2.80;;;;;;;12.37;74.83;101328.03;5053370;28;20075;-65
2022/06/18 00:06:48;;;;;;;4.13;2.20;;;;;;;12.34;74.91;101322.19;5054068;28;20092;-64
2022/06/18 00:09:14;;;;;;;4.53;2.27;;;;;;;12.31;74.91;101327.84;5055215;28;20033;-65
2022/06/18 00:14:24;;;;;;;2.50;2.27;;;;;;;12.31;75.55;101336.69;5055769;28;20086;-63
2022/06/18 00:16:50;;;;;;;3.03;2.10;;;;;;;12.31;75.70;101327.84;5055315;28;20041;-64
2022/06/18 00:19:16;;;;;;;2.40;2.20;;;;;;;12.34;75.36;101333.69;5055106;28;20404;-66
2022/06/18 00:21:42;;;;;;;2.03;1.83;;;;;;;12.36;75.38;101337.06;5054970;28;20037;-65
2022/06/18 00:24:17;;;;;;;3.50;2.10;;;;;;;12.34;75.47;101324.84;5054640;28;20044;-64
2022/06/18 00:26:44;;;;;;;2.57;2.37;;;;;;;12.36;75.64;101325.53;5054747;28;20459;-64
2022/06/18 00:29:17;;;;;;;3.70;2.30;;;;;;;12.36;75.52;101326.38;5055230;28;20033;-64
2022/06/18 00:31:43;;;;;;;1.97;1.77;;;;;;;12.24;76.01;101316.97;5053693;28;20037;-65
2022/06/18 00:34:09;;;;;;;3.10;2.20;;;;;;;12.30;76.31;101331.53;5053174;28;20041;-64
2022/06/18 00:36:40;;;;;;;2.23;2.03;;;;;;;12.25;76.16;101325.81;5052947;28;20476;-64
2022/06/18 00:39:09;;;;;;;3.00;2.60;;;;;;;12.29;76.16;101336.03;5052834;28;20068;-66
2022/06/18 00:41:35;;;;;;;2.40;2.20;;;;;;;12.28;76.65;101333.50;5052765;28;20035;-63
2022/06/18 00:44:06;;;;;;;3.80;2.40;;;;;;;12.03;76.49;101288.00;5052815;28;20037;-66
2022/06/18 00:46:47;;;;;;;5.77;3.13;;;;;;;12.28;76.51;101338.84;5053013;28;20028;-65
2022/06/18 00:49:31;;;;;;;5.47;2.57;;;;;;;12.23;77.07;101330.50;5053271;28;20195;-65
2022/06/18 00:52:13;;;;;;;7.87;2.63;;;;;;;12.01;77.21;101299.81;5052600;28;20539;-65
2022/06/18 00:55:02;;;;;;;3.27;2.67;;;;;;;11.86;77.74;101280.06;5052884;28;20405;-62
2022/06/18 00:57:59;;;;;;;5.47;3.30;;;;;;;12.04;77.44;101319.03;5045062;28;20515;-64
2022/06/18 01:00:33;;;;;;;3.57;2.73;;;;;;;12.02;77.80;101333.53;5052642;28;20175;-64
2022/06/18 01:02:59;;;;;;;4.40;2.60;;;;;;;11.97;78.16;101312.66;5051482;28;20060;-64
2022/06/18 01:05:35;;;;;;;2.83;2.63;;;;;;;12.01;78.47;101322.03;5052658;28;20477;-65
2022/06/18 01:08:06;;;;;;;2.93;2.33;;;;;;;11.94;78.74;101321.00;5052384;28;20037;-65
2022/06/18 01:10:37;;;;;;;4.70;2.83;;;;;;;11.84;78.68;101298.88;5052595;28;20125;-64
2022/06/18 01:13:08;;;;;;;3.60;2.53;;;;;;;11.86;78.96;101315.59;5052239;28;20063;-64
2022/06/18 01:15:34;;;;;;;4.10;2.33;;;;;;;11.71;78.87;101301.13;5052274;28;20064;-65
2022/06/18 01:18:01;;;;;;;3.50;3.00;;;;;;;11.72;79.69;101319.63;5052349;28;20492;-64
2022/06/18 01:20:27;;;;;;;3.60;3.30;;;;;;;11.59;79.64;101300.56;5052192;28;20033;-65
2022/06/18 01:23:09;;;;;;;3.50;2.90;;;;;;;11.14;80.00;101236.69;5050924;28;20039;-65
2022/06/18 01:25:36;;;;;;;3.17;2.67;;;;;;;11.43;80.79;101298.59;5052615;28;20049;-65
2022/06/18 01:28:02;;;;;;;4.67;3.17;;;;;;;11.34;81.02;101288.84;5056026;28;20033;-64
2022/06/18 01:30:39;;;;;;;3.40;3.10;;;;;;;11.46;81.03;101305.44;5058042;28;20029;-63
2022/06/18 01:33:07;;;;;;;4.00;3.03;;;;;;;11.44;81.12;101299.44;5058134;28;20037;-65
2022/06/18 01:35:37;;;;;;;5.47;2.88;;;;;;;11.44;80.63;101294.94;5058787;28;20036;-64
2022/06/18 01:38:04;;;;;;;3.23;2.93;;;;;;;11.58;80.91;101303.38;5052435;28;20565;-64
2022/06/18 01:40:47;;;;;;;5.50;3.13;;;;;;;11.72;80.48;101321.47;5052445;28;20045;-66
2022/06/18 01:43:17;;;;;;;4.37;2.73;;;;;;;11.65;80.42;101307.09;5051909;28;20060;-65
2022/06/18 01:45:47;;;;;;;4.57;2.67;;;;;;;11.81;80.14;101327.72;5051719;28;20136;-66
2022/06/18 01:48:22;;;;;;;4.47;2.90;;;;;;;11.88;79.83;101326.13;5050409;28;20044;-63
2022/06/18 01:50:54;;;;;;;4.10;3.10;;;;;;;11.96;79.66;101318.16;5051915;28;20124;-62
2022/06/18 01:53:25;;;;;;;3.27;2.90;;;;;;;11.88;79.64;101310.94;5051763;28;20036;-65
2022/06/18 01:56:06;;;;;;;9.07;6.03;;;;;;;12.01;79.32;101313.19;5051980;28;20049;-64
2022/06/18 01:58:39;;;;;;;4.30;2.77;;;;;;;12.05;79.20;101323.38;5051561;28;20033;-63
2022/06/18 02:01:11;;;;;;;3.67;2.57;;;;;;;11.86;78.54;101301.44;5051993;28;20039;-64
2022/06/18 02:03:37;;;;;;;3.17;2.90;;;;;;;11.83;79.14;101323.06;5051815;28;20076;-65
2022/06/18 02:06:04;;;;;;;4.33;2.70;;;;;;;11.74;79.20;101319.47;5051557;28;20068;-65
2022/06/18 02:08:30;;;;;;;3.38;2.53;;;;;;;11.47;79.64;101280.44;5054907;28;20037;-63
2022/06/18 02:11:03;;;;;;;5.50;3.10;;;;;;;11.64;79.66;101326.75;5055452;28;20037;-64
2022/06/18 02:13:36;;;;;;;3.57;3.10;;;;;;;11.58;79.94;101327.38;5055742;28;20489;-64
2022/06/18 02:16:05;;;;;;;2.77;2.50;;;;;;;11.53;79.97;101321.66;5054537;28;20067;-64
2022/06/18 02:18:33;;;;;;;3.97;2.63;;;;;;;11.52;79.82;101336.81;5054135;28;20068;-65
2022/06/18 02:21:05;;;;;;;2.90;2.17;;;;;;;10.77;80.35;101211.09;5055556;28;20036;-64
2022/06/18 02:23:31;;;;;;;3.40;2.37;;;;;;;11.48;79.77;101330.97;5055268;28;20516;-66
2022/06/18 02:25:57;;;;;;;4.57;2.50;;;;;;;11.41;80.21;101321.06;5055466;28;20044;-63
2022/06/18 02:28:27;;;;;;;3.17;2.40;;;;;;;11.06;80.36;101265.97;5055629;28;20037;-65
2022/06/18 02:30:58;;;;;;;7.50;2.60;;;;;;;11.34;80.47;101310.19;5055355;28;20584;-65
2022/06/18 02:33:44;;;;;;;4.40;2.70;;;;;;;11.47;80.18;101331.13;5055349;28;20040;-64
2022/06/18 02:36:17;;;;;;;6.00;3.10;;;;;;;11.47;79.88;101329.28;5055214;28;20043;-66
2022/06/18 02:38:45;;;;;;;6.67;2.80;;;;;;;11.42;79.66;101315.59;5054289;28;20037;-65
2022/06/18 02:41:11;;;;;;;7.23;2.53;;;;;;;11.49;79.58;101321.13;5055063;28;20055;-65
2022/06/18 02:43:39;;;;;;;4.83;2.73;;;;;;;11.50;79.88;101322.81;5054938;28;20033;-65
2022/06/18 02:46:05;;;;;;;4.25;2.75;;;;;;;11.60;79.38;101326.25;5055004;28;20389;-65
2022/06/18 02:48:33;;;;;;;5.33;2.93;;;;;;;11.56;79.25;101311.50;5053437;28;20047;-66
2022/06/18 02:51:00;;;;;;;4.82;2.83;;;;;;;11.95;78.28;101322.66;5054947;28;20480;-64
2022/06/18 02:53:27;;;;;;;4.60;3.57;;;;;;;13.51;72.58;101301.53;5053499;28;20496;-63
2022/06/18 02:55:56;;;;;;;4.03;3.47;;;;;;;15.98;64.43;101325.84;5054525;28;20056;-64
2022/06/18 02:58:28;;;;;;;5.53;3.43;;;;;;;18.26;58.01;101324.09;5053337;28;20049;-65
2022/06/18 03:00:56;;;;;;;3.23;2.97;;;;;;;20.15;51.26;101329.41;5054802;28;20041;-66
2022/06/18 03:03:28;;;;;;;3.40;3.03;;;;;;;21.20;46.63;101312.72;5054744;28;20523;-64
2022/06/18 03:05:54;;;;;;;4.10;3.23;;;;;;;22.11;44.29;101324.91;5054751;28;20048;-64
2022/06/18 03:08:25;;;;;;;3.10;2.90;;;;;;;22.37;43.35;101321.06;5055528;28;20037;-65
2022/06/18 03:13:36;;;;;;;3.00;2.80;;;;;;;22.98;40.67;101269.31;5064166;28;20408;-66
2022/06/18 03:16:03;;;;;;;2.65;2.00;;;;;;;22.52;41.54;101311.47;5065132;28;20037;-65
2022/06/18 03:18:30;;;;;;;3.88;2.42;;;;;;;20.49;45.93;101315.59;5061960;28;20037;-64
2022/06/18 03:21:19;;;;;;;2.40;2.20;;;;;;;19.17;50.19;101321.13;5055229;28;20515;-65
2022/06/18 03:23:45;;;;;;;;;;;;;;;19.27;50.30;101308.03;5053692;28;20123;-65
2022/06/18 03:26:12;;;;;;;2.70;2.50;;;;;;;18.94;50.92;101315.25;5054108;28;20351;-63
2022/06/18 03:28:38;;;;;;;3.23;2.30;;;;;;;19.09;50.37;101299.72;5054563;28;20045;-64
2022/06/18 03:31:03;;;;;;;2.70;2.47;;;;;;;19.89;48.25;101282.44;5053677;28;20400;-66
2022/06/18 03:33:30;;;;;;;3.40;2.90;;;;;;;20.51;47.04;101312.66;5054129;28;20037;-63
2022/06/18 03:35:56;;;;;;;3.63;2.73;;;;;;;21.51;44.18;101305.63;5052820;28;20040;-64
2022/06/18 03:38:22;;;;;;;2.93;2.70;;;;;;;22.08;43.06;101325.34;5054024;28;20120;-65
2022/06/18 03:40:51;;;;;;;3.27;2.23;;;;;;;21.46;43.83;101319.00;5054016;28;20068;-65
2022/06/18 03:43:23;;;;;;;3.27;2.80;;;;;;;20.48;46.50;101315.81;5054088;28;20044;-63
2022/06/18 03:45:56;;;;;;;2.87;2.67;;;;;;;20.30;46.36;101327.28;5053907;28;20047;-66
2022/06/18 03:48:54;;;;;;;3.27;2.60;;;;;;;20.25;47.52;101325.25;5053912;28;20033;-65
2022/06/18 03:51:20;;;;;;;3.63;3.25;;;;;;;20.54;46.45;101318.50;5041573;28;20516;-63
2022/06/18 03:53:46;;;;;;;2.43;2.23;;;;;;;21.49;44.62;101305.03;5053530;28;20051;-65
2022/06/18 03:56:15;;;;;;;2.80;2.37;;;;;;;21.85;42.78;101310.50;5053762;28;20107;-64
2022/06/18 03:58:42;;;;;;;3.55;2.78;;;;;;;21.57;42.39;101254.06;5053571;28;20094;-65
2022/06/18 04:01:09;;;;;;;2.47;2.28;;;;;;;21.97;42.00;101313.31;5053456;28;20031;-67
2022/06/18 04:03:34;;;;;;;3.10;2.88;;;;;;;22.12;41.39;101288.56;5053255;28;20079;-66
2022/06/18 04:06:00;;;;;;;2.55;2.35;;;;;;;22.39;41.00;101294.53;5053550;28;20040;-65
2022/06/18 04:08:26;;;;;;;3.75;2.13;;;;;;;22.61;40.67;101313.88;5053776;28;20464;-65
2022/06/18 04:10:51;;;;;;;3.70;2.90;;;;;;;22.16;41.12;101297.91;5053508;28;20047;-66
2022/06/18 04:13:17;;;;;;;3.22;2.92;;;;;;;22.09;41.99;101299.88;5053543;28;20037;-65
2022/06/18 04:15:43;;;;;;;3.22;2.25;;;;;;;22.73;40.40;101318.28;5053801;28;20037;-65
2022/06/18 04:18:15;;;;;;;4.20;2.53;;;;;;;23.03;39.43;101318.31;5053266;28;20496;-65
2022/06/18 04:20:41;;;;;;;2.00;1.75;;;;;;;22.59;40.05;101310.56;5053152;28;20041;-66
2022/06/18 04:23:15;;;;;;;2.38;2.20;;;;;;;21.87;40.74;101313.84;5053082;28;20412;-64
2022/06/18 04:25:42;;;;;;;1.80;1.70;;;;;;;20.28;43.69;101305.03;5053056;28;20488;-63
2022/06/18 04:28:10;;;;;;;1.83;1.73;;;;;;;19.74;44.73;101314.31;5053029;28;20542;-66
2022/06/18 04:30:35;;;;;;;2.72;2.03;;;;;;;19.84;45.35;101311.16;5051793;28;20622;-66
2022/06/18 04:33:02;;;;;;;2.92;2.72;;;;;;;20.46;43.95;101305.19;5053112;28;20131;-66
2022/06/18 04:35:28;;;;;;;2.72;2.53;;;;;;;21.17;42.75;101302.31;5053041;28;20477;-65
2022/06/18 04:37:53;;;;;;;4.88;2.80;;;;;;;21.93;41.25;101309.38;5053215;28;20040;-64
2022/06/18 04:40:22;;;;;;;2.38;2.17;;;;;;;22.23;40.11;101304.09;5052791;28;20041;-65
2022/06/18 04:42:48;;;;;;;2.65;2.45;;;;;;;22.43;40.21;101318.25;5052723;28;20048;-65
2022/06/18 04:45:14;;;;;;;2.75;2.55;;;;;;;22.55;38.34;101272.16;5052689;28;20036;-65
2022/06/18 04:47:40;;;;;;;2.33;2.13;;;;;;;23.34;37.67;101286.50;5052603;28;20040;-65
2022/06/18 04:50:09;;;;;;;2.42;2.22;;;;;;;22.92;38.57;101310.97;5052669;28;20041;-67
2022/06/18 04:52:35;;;;;;;2.88;2.60;;;;;;;23.09;38.14;101311.97;5052611;28;20041;-66
2022/06/18 04:55:00;;;;;;;2.25;1.65;;;;;;;22.14;39.33;101291.88;5052631;28;20056;-66
2022/06/18 04:57:26;;;;;;;2.15;1.90;;;;;;;20.21;43.00;101310.44;5052576;28;20068;-65
2022/06/18 04:59:51;;;;;;;2.72;2.53;;;;;;;19.67;44.97;101303.50;5052422;28;20052;-65
2022/06/18 05:02:26;;;;;;;2.63;2.42;;;;;;;20.78;43.25;101297.13;5052725;28;20575;-66
2022/06/18 05:04:54;;;;;;;3.08;2.30;;;;;;;21.29;41.55;101284.31;5052364;28;20082;-65
2022/06/18 05:07:19;;;;;;;3.47;2.73;;;;;;;21.36;41.51;101280.72;5052518;28;20033;-66
2022/06/18 05:09:45;;;;;;;1.73;1.63;;;;;;;21.27;41.10;101304.56;5052163;28;20548;-64
2022/06/18 05:12:12;;;;;;;1.80;1.67;;;;;;;19.68;43.11;101296.22;5050887;28;20389;-65
2022/06/18 05:14:38;;;;;;;7.22;4.70;;;;;;;19.46;44.29;101307.22;5052137;28;20044;-64
2022/06/18 05:17:06;;;;;;;3.35;3.05;;;;;;;20.06;43.42;101299.91;5052349;28;20052;-65
2022/06/18 05:19:33;;;;;;;3.78;3.42;;;;;;;20.61;42.86;101300.34;5052379;28;20068;-65
2022/06/18 05:21:59;;;;;;;2.40;2.13;;;;;;;20.72;42.46;101291.53;5051917;28;20558;-65
2022/06/18 05:24:25;;;;;;;3.00;1.95;;;;;;;20.23;43.57;101294.00;5052098;28;20049;-65
2022/06/18 05:26:55;;;;;;;4.22;1.90;;;;;;;19.05;46.26;101290.34;5051570;28;20373;-65
2022/06/18 05:29:21;;;;;;;2.77;2.47;;;;;;;18.00;49.62;101291.59;5051804;28;20036;-65
2022/06/18 05:31:47;;;;;;;4.30;2.10;;;;;;;17.32;51.48;101287.72;5051905;28;20447;-65
2022/06/18 05:34:13;;;;;;;3.10;2.33;;;;;;;16.82;52.65;101292.22;5051805;28;20037;-65
2022/06/18 05:36:38;;;;;;;2.63;2.23;;;;;;;16.30;55.62;101274.41;5051786;28;20040;-64
2022/06/18 05:39:05;;;;;;;2.50;2.30;;;;;;;15.91;56.07;101276.59;5051685;28;20044;-65
2022/06/18 05:41:31;;;;;;;2.07;1.93;;;;;;;15.85;55.56;101288.03;5051312;28;20064;-64
2022/06/18 05:43:57;;;;;;;2.30;2.07;;;;;;;15.71;56.25;101271.75;5051839;28;20158;-64
2022/06/18 05:46:23;;;;;;;2.23;2.10;;;;;;;15.95;56.33;101283.25;5051754;28;20127;-66
2022/06/18 05:48:48;;;;;;;2.97;2.73;;;;;;;16.21;54.27;101275.56;5051800;28;20483;-66
2022/06/18 05:51:14;;;;;;;4.57;2.10;;;;;;;16.26;55.26;101264.22;5051794;28;20044;-66
2022/06/18 05:53:39;;;;;;;2.70;2.40;;;;;;;16.47;54.54;101266.13;5051628;28;20072;-65
2022/06/18 05:56:05;;;;;;;2.10;1.90;;;;;;;16.58;52.63;101276.41;5051621;28;20107;-64
2022/06/18 05:58:33;;;;;;;2.17;1.90;;;;;;;16.43;54.29;101271.88;5051637;28;20049;-63
2022/06/18 06:00:59;;;;;;;1.88;1.77;;;;;;;15.99;54.46;101246.94;5051781;28;20128;-65
2022/06/18 06:03:24;;;;;;;2.40;2.20;;;;;;;16.01;55.29;101255.63;5051740;28;20043;-64
2022/06/18 06:05:50;;;;;;;3.87;2.40;;;;;;;15.99;55.73;101247.75;5051608;28;20131;-67
2022/06/18 06:08:15;;;;;;;2.53;2.33;;;;;;;15.95;57.87;101257.22;5051446;28;20411;-65
2022/06/18 06:13:27;;;;;;;3.37;2.30;;;;;;;16.26;56.99;101256.16;5052048;28;20043;-66
2022/06/18 06:15:54;;;;;;;8.37;2.60;;;;;;;16.43;56.66;101255.75;5053046;28;20028;-66
2022/06/18 06:18:22;;;;;;;4.63;2.50;;;;;;;16.48;56.89;101265.09;5051665;28;20029;-65
2022/06/18 06:20:52;;;;;;;2.97;1.90;;;;;;;16.60;57.84;101260.91;5051755;28;20033;-66
2022/06/18 06:23:17;;;;;;;2.10;1.90;;;;;;;16.69;56.39;101275.94;5051597;28;20048;-66
2022/06/18 06:25:46;;;;;;;2.83;2.47;;;;;;;16.48;57.57;101255.22;5052235;28;20532;-67
2022/06/18 06:28:15;;;;;;;2.50;2.30;;;;;;;16.60;56.29;101261.75;5051828;28;20488;-66
2022/06/18 06:30:41;;;;;;;3.37;2.00;;;;;;;16.68;55.83;101247.38;5051549;28;20029;-64
2022/06/18 06:33:06;;;;;;;2.30;2.10;;;;;;;16.84;54.30;101247.13;5051393;28;20047;-64
2022/06/18 06:35:33;;;;;;;2.67;2.47;;;;;;;16.93;54.36;101262.13;5051276;28;20037;-64
2022/06/18 06:37:59;;;;;;;4.33;2.63;;;;;;;17.00;55.08;101263.00;5051579;28;20501;-66
2022/06/18 06:40:24;;;;;;;4.63;2.17;;;;;;;17.03;55.24;101268.00;5051604;28;20037;-66
2022/06/18 06:42:51;;;;;;;3.93;2.40;;;;;;;17.11;54.03;101263.53;5051426;28;20041;-67
2022/06/18 06:45:21;;;;;;;2.20;2.00;;;;;;;17.21;54.31;101261.34;5051397;28;20048;-66
2022/06/18 06:47:47;;;;;;;3.30;2.15;;;;;;;16.69;53.55;101153.06;5051274;28;20037;-67
2022/06/18 06:50:14;;;;;;;3.00;2.40;;;;;;;17.13;53.45;101253.41;5051253;28;20040;-66
2022/06/18 06:52:41;;;;;;;2.40;2.13;;;;;;;16.99;53.61;101257.81;5050965;28;20408;-63
2022/06/18 07:00:52;;;;;;;2.40;2.20;;;;;;;16.93;54.58;101251.38;5054638;28;20041;-67
2022/06/18 07:03:21;;;;;;;6.30;3.00;;;;;;;16.89;54.37;101236.63;5054951;28;20045;-66
2022/06/18 07:05:46;;;;;;;3.90;2.70;;;;;;;16.97;54.20;101228.41;5055471;28;20040;-65
2022/06/18 07:08:12;;;;;;;3.97;2.60;;;;;;;17.18;54.38;101232.13;5057343;28;20037;-64
2022/06/18 07:10:38;;;;;;;3.97;2.27;;;;;;;17.20;53.63;101222.00;5060190;28;20102;-62
2022/06/18 07:13:05;;;;;;;5.15;2.30;;;;;;;17.22;53.88;101228.84;5055139;28;20098;-62
2022/06/18 07:15:32;;;;;;;5.30;3.00;;;;;;;17.19;53.74;101245.38;5054586;28;20036;-65
2022/06/18 07:17:58;;;;;;;3.22;2.78;;;;;;;16.91;55.07;101231.06;5054574;28;20033;-65
2022/06/18 07:20:24;;;;;;;3.27;2.40;;;;;;;16.67;55.63;101240.31;5054508;28;20033;-63
2022/06/18 07:22:50;;;;;;;3.95;2.58;;;;;;;16.56;55.39;101243.50;5054518;28;20118;-66
2022/06/18 07:25:16;;;;;;;3.83;2.47;;;;;;;16.54;55.15;101240.16;5054074;28;20072;-67
2022/06/18 07:27:42;;;;;;;4.90;2.60;;;;;;;16.68;54.47;101231.25;5054253;28;20098;-65
2022/06/18 07:30:09;;;;;;;3.70;2.27;;;;;;;16.96;54.77;101239.38;5054494;28;20105;-66
2022/06/18 07:32:36;;;;;;;2.93;2.63;;;;;;;16.88;55.68;101243.03;5055473;28;20044;-66
2022/06/18 07:35:04;;;;;;;4.60;2.40;;;;;;;16.82;54.89;101243.81;5054299;28;20041;-67
2022/06/18 07:37:30;;;;;;;2.53;2.33;;;;;;;16.93;55.15;101232.53;5054069;28;20043;-65
2022/06/18 07:39:56;;;;;;;3.47;2.40;;;;;;;17.20;54.97;101233.59;5054288;28;20036;-66
2022/06/18 07:42:23;;;;;;;5.68;2.63;;;;;;;17.16;55.44;101224.25;5054071;28;20124;-65
2022/06/18 07:44:49;;;;;;;3.33;2.63;;;;;;;17.26;55.00;101229.28;5054012;28;20086;-66
2022/06/18 07:47:17;;;;;;;6.68;2.53;;;;;;;17.02;55.44;101215.22;5055526;28;20037;-66
2022/06/18 07:49:45;;;;;;;4.22;2.50;;;;;;;16.85;55.92;101224.59;5055964;28;20029;-65
2022/06/18 07:52:15;;;;;;;5.25;3.15;;;;;;;16.82;56.65;101222.28;5055943;28;20040;-65
2022/06/18 07:54:43;;;;;;;2.83;2.45;;;;;;;17.03;56.76;101224.94;5052679;28;20025;-65
2022/06/18 07:57:09;;;;;;;2.63;2.42;;;;;;;17.21;54.03;101210.22;5053406;28;20063;-66
2022/06/18 07:59:35;;;;;;;2.92;2.67;;;;;;;17.36;52.62;101219.03;5053783;28;20559;-64
2022/06/18 08:02:01;;;;;;;3.08;2.80;;;;;;;17.28;52.66;101214.59;5053742;28;20124;-65
2022/06/18 08:04:26;;;;;;;3.67;2.22;;;;;;;17.35;53.14;101212.00;5053623;28;20083;-65
2022/06/18 08:06:53;;;;;;;3.08;2.67;;;;;;;17.43;52.81;101214.53;5052103;28;20036;-65
2022/06/18 08:09:19;;;;;;;6.72;2.30;;;;;;;17.29;52.79;101205.50;5053543;28;20037;-64
2022/06/18 08:11:44;;;;;;;6.45;3.63;;;;;;;17.04;53.02;101172.78;5053483;28;20040;-67
2022/06/18 08:14:11;;;;;;;6.78;3.03;;;;;;;17.48;53.34;101225.53;5052532;28;20128;-66
2022/06/18 08:16:36;;;;;;;4.40;2.42;;;;;;;17.46;53.07;101221.38;5053695;28;20121;-65
2022/06/18 08:19:02;;;;;;;4.03;2.83;;;;;;;17.52;53.93;101216.03;5053652;28;20481;-67
2022/06/18 08:21:36;;;;;;;5.18;2.97;;;;;;;17.60;54.29;101204.25;5053314;28;20489;-66
2022/06/18 08:24:06;;;;;;;2.90;2.53;;;;;;;17.73;52.90;101211.63;5053148;28;20580;-66
2022/06/18 08:26:33;;;;;;;5.13;3.13;;;;;;;17.75;53.23;101206.88;5053510;28;20075;-67
2022/06/18 08:29:02;;;;;;;4.22;3.70;;;;;;;17.77;53.22;101196.72;5053588;28;20139;-66
2022/06/18 08:31:28;;;;;;;5.72;2.45;;;;;;;17.83;52.70;101204.84;5054214;28;20040;-65
2022/06/18 08:33:55;;;;;;;3.50;3.15;;;;;;;17.77;52.75;101204.81;5053232;28;20056;-64
2022/06/18 08:36:21;;;;;;;3.00;2.53;;;;;;;17.64;52.86;101194.78;5052991;28;20040;-65
2022/06/18 08:38:48;;;;;;;5.07;3.13;;;;;;;17.55;52.67;101179.78;5053215;28;20033;-67
2022/06/18 08:41:35;;;;;;;6.22;2.85;;;;;;;17.62;52.22;101194.94;5053182;28;20029;-64
2022/06/18 08:44:24;;;;;;;6.32;2.90;;;;;;;17.67;53.24;101199.78;5053162;28;20540;-64
2022/06/18 08:47:04;;;;;;;5.00;3.20;;;;;;;17.70;52.43;101204.78;5046145;28;20044;-67
2022/06/18 08:50:06;;;;;;;4.10;3.00;;;;;;;17.82;52.50;101202.34;5053007;28;20048;-66
2022/06/18 08:52:44;;;;;;;6.63;2.20;;;;;;;17.92;51.17;101203.63;5053069;28;20036;-65
2022/06/18 08:55:46;;;;;;;3.55;2.80;;;;;;;18.04;50.19;101200.38;5052504;28;20071;-67
2022/06/18 08:58:28;;;;;;;3.30;2.70;;;;;;;17.64;49.39;101163.28;5053195;28;20040;-66
2022/06/18 09:00:58;;;;;;;3.20;2.90;;;;;;;17.86;50.57;101207.13;5051857;28;20065;-64
2022/06/18 09:03:35;;;;;;;2.83;2.25;;;;;;;17.88;51.11;101204.25;5051217;28;20095;-64
2022/06/18 09:06:16;;;;;;;5.65;3.08;;;;;;;17.88;49.30;101207.75;5053104;28;20151;-65
2022/06/18 09:09:12;;;;;;;3.08;1.77;;;;;;;17.82;48.79;101191.56;5053144;28;20048;-66
2022/06/18 09:12:04;;;;;;;1.52;1.40;;;;;;;17.97;48.44;101203.06;5052827;28;20035;-66
2022/06/18 09:14:57;;;;;;;3.47;2.78;;;;;;;18.00;48.06;101189.19;5053434;28;20044;-66
2022/06/18 09:17:34;;;;;;;4.40;2.00;;;;;;;17.89;48.61;101197.81;5053949;28;20037;-67
2022/06/18 09:20:02;;;;;;;3.38;2.15;;;;;;;17.80;48.43;101204.41;5054233;28;20488;-64
2022/06/18 09:22:32;;;;;;;2.47;1.58;;;;;;;17.69;47.49;101186.97;5053555;28;20051;-64
2022/06/18 09:25:07;;;;;;;5.15;1.88;;;;;;;17.80;48.16;101180.16;5052488;28;20511;-67
2022/06/18 09:27:45;;;;;;;2.05;1.65;;;;;;;17.85;47.91;101175.00;5054064;28;20037;-65
2022/06/18 09:30:22;;;;;;;2.50;1.83;;;;;;;17.98;47.81;101180.47;5053943;28;20079;-66
2022/06/18 09:32:50;;;;;;;2.40;1.80;;;;;;;18.03;47.06;101186.09;5053795;28;20044;-65
2022/06/18 09:35:39;;;;;;;3.53;2.13;;;;;;;18.02;46.89;101170.13;5053480;28;20068;-67
2022/06/18 09:38:10;;;;;;;1.85;1.67;;;;;;;17.29;47.69;101072.75;5052555;28;20044;-63
2022/06/18 09:40:47;;;;;;;2.25;1.77;;;;;;;17.98;47.10;101169.69;5053529;28;20385;-67
2022/06/18 09:43:25;;;;;;;1.90;1.75;;;;;;;18.01;46.82;101158.50;5052470;28;20127;-67
2022/06/18 09:45:56;;;;;;;6.15;2.30;;;;;;;18.14;46.91;101163.94;5053354;28;20033;-63
2022/06/18 09:48:22;;;;;;;6.68;1.73;;;;;;;18.22;46.84;101147.59;5053036;28;20096;-67
2022/06/18 09:51:02;;;;;;;4.13;1.73;;;;;;;18.45;47.36;101159.84;5052578;28;20548;-64
2022/06/18 09:53:42;;;;;;;6.05;2.47;;;;;;;18.46;46.16;101156.13;5052458;28;20036;-64
2022/06/18 09:56:13;;;;;;;4.47;2.47;;;;;;;18.45;47.94;101154.47;5052267;28;20061;-66
2022/06/18 09:58:51;;;;;;;4.45;2.40;;;;;;;18.62;47.70;101155.78;5051075;28;20413;-66
2022/06/18 10:01:27;;;;;;;4.50;1.92;;;;;;;18.34;46.67;101101.16;5052827;28;20116;-64
2022/06/18 10:06:52;;;;;;;2.92;2.10;;;;;;;18.55;45.60;101144.13;5052342;28;20397;-65
2022/06/18 10:09:21;;;;;;;3.03;1.95;;;;;;;18.32;46.10;101127.50;5052200;28;20068;-66
2022/06/18 10:11:47;;;;;;;3.15;2.20;;;;;;;18.34;46.55;101136.19;5052274;28;20040;-65
2022/06/18 10:14:21;;;;;;;2.95;2.08;;;;;;;18.38;46.94;101114.00;5054782;28;20091;-65
2022/06/18 10:16:49;;;;;;;3.50;2.63;;;;;;;18.70;46.91;101120.50;5059962;28;20045;-65
2022/06/18 10:19:42;;;;;;;3.80;2.20;;;;;;;18.93;46.55;101124.66;5061582;28;20041;-63
2022/06/18 10:22:23;;;;;;;5.45;2.90;;;;;;;19.01;47.05;101103.66;5054955;28;20412;-63
2022/06/18 10:24:57;;;;;;;3.38;2.50;;;;;;;19.20;46.57;101104.69;5051549;28;20549;-66
2022/06/18 10:27:26;;;;;;;6.70;3.53;;;;;;;19.29;47.44;101110.69;5050354;28;20033;-64
2022/06/18 10:29:55;;;;;;;;;;;;;;;19.46;47.50;101099.22;5054016;28;20442;-64
2022/06/18 10:32:50;;;;;;;3.70;2.85;;;;;;;19.41;47.16;101106.31;5055719;28;20426;-67
2022/06/18 10:35:38;;;;;;;7.60;3.60;;;;;;;19.40;47.57;101110.88;5055412;28;20404;-66
2022/06/18 10:38:41;;;;;;;9.60;7.05;;;;;;;19.55;47.56;101077.41;5055258;28;20043;-65
2022/06/18 10:41:12;;;;;;;4.85;2.63;;;;;;;19.88;46.78;101094.28;5055256;28;20077;-66
2022/06/18 10:43:47;;;;;;;6.13;3.45;;;;;;;19.96;45.65;101085.13;5055252;28;20029;-65
2022/06/18 10:46:16;;;;;;;5.07;3.05;;;;;;;19.97;45.46;101087.59;5037332;28;20120;-64
2022/06/18 10:48:49;;;;;;;5.32;2.70;;;;;;;20.15;46.34;101075.22;5055132;28;20499;-66
2022/06/18 10:51:20;;;;;;;7.80;3.05;;;;;;;20.21;45.12;101074.34;5055252;28;20045;-65
2022/06/18 10:54:00;;;;;;;3.97;2.70;;;;;;;20.47;44.46;101076.88;5053592;28;20029;-64
2022/06/18 10:56:31;;;;;;;4.63;2.95;;;;;;;20.54;45.41;101080.41;5054944;28;20079;-65
2022/06/18 10:59:03;;;;;;;6.85;2.72;;;;;;;20.26;44.15;101034.78;5053625;28;20072;-65
2022/06/18 11:01:55;;;;;;;4.53;2.63;;;;;;;20.71;44.99;101072.53;5053451;28;20385;-63
2022/06/18 11:04:31;;;;;;;3.53;2.20;;;;;;;20.92;44.90;101065.91;5053196;28;20520;-66
2022/06/18 11:07:03;;;;;;;5.85;3.85;;;;;;;20.87;44.63;101052.22;5054555;28;20481;-68
2022/06/18 11:09:57;;;;;;;5.20;2.88;;;;;;;20.92;43.41;101063.19;5055272;28;20045;-66
2022/06/18 11:12:33;;;;;;;3.22;1.83;;;;;;;20.64;43.85;101042.81;5052333;28;20047;-68
2022/06/18 11:14:59;;;;;;;4.60;3.25;;;;;;;20.71;43.86;101049.00;5054633;28;20535;-66
2022/06/18 11:17:33;;;;;;;5.50;2.40;;;;;;;20.54;44.01;101031.69;5054582;28;20095;-67
2022/06/18 11:20:19;;;;;;;5.38;2.33;;;;;;;20.59;45.53;101045.38;5054520;28;20433;-66
2022/06/18 11:22:58;;;;;;;3.30;1.75;;;;;;;20.33;44.94;101023.91;5054472;28;20119;-65
2022/06/18 11:25:29;;;;;;;3.38;2.50;;;;;;;20.37;45.74;101038.66;5054154;28;20057;-67
2022/06/18 11:28:01;;;;;;;5.10;1.85;;;;;;;20.36;45.00;101034.28;5054547;28;20131;-66
2022/06/18 11:30:32;;;;;;;5.00;2.80;;;;;;;20.35;45.54;101024.53;5055849;28;20044;-66
2022/06/18 11:33:00;;;;;;;3.92;2.25;;;;;;;20.48;45.17;101027.13;5055239;28;20156;-64
2022/06/18 11:35:29;;;;;;;4.35;2.03;;;;;;;20.46;44.60;101018.41;5054198;28;20033;-66
2022/06/18 11:38:00;;;;;;;3.00;1.90;;;;;;;20.24;44.43;101009.84;5053935;28;20036;-68
2022/06/18 11:40:26;;;;;;;2.65;1.60;;;;;;;20.21;44.28;101017.53;5053615;28;20047;-65
2022/06/18 11:42:58;;;;;;;3.47;1.92;;;;;;;20.19;43.71;100998.00;5054092;28;20033;-66
2022/06/18 11:45:35;;;;;;;3.63;2.30;;;;;;;20.47;44.07;101014.66;5053933;28;20041;-67
2022/06/18 11:48:30;;;;;;;3.53;2.22;;;;;;;20.61;43.56;101010.81;5053704;28;20036;-67
2022/06/18 11:51:14;;;;;;;4.60;2.28;;;;;;;20.63;42.51;101008.69;5053945;28;20498;-65
2022/06/18 11:54:10;;;;;;;5.05;2.15;;;;;;;20.71;43.02;100994.88;5053963;28;20040;-68
2022/06/18 11:57:04;;;;;;;3.13;2.13;;;;;;;20.90;43.48;101000.31;5053554;28;20053;-65
2022/06/18 11:59:39;;;;;;;5.43;1.80;;;;;;;20.87;43.55;100981.81;5053738;28;20056;-66
2022/06/18 12:02:22;;;;;;;4.47;1.90;;;;;;;20.94;43.18;100988.81;5053864;28;20062;-67